createdAt,value
2022-10-02T00:01:31.452Z,4.13
2022-10-02T00:03:59.530Z,3.55
2022-10-02T00:06:33.495Z,4.18
2022-10-02T00:09:04.329Z,4.55
2022-10-02T00:11:40.666Z,4.82
2022-10-02T00:14:14.657Z,4.30
2022-10-02T00:16:45.010Z,3.35
2022-10-02T00:19:16.285Z,3.60
2022-10-02T00:22:09.744Z,3.78
2022-10-02T00:24:43.791Z,3.92
2022-10-02T00:27:20.972Z,3.80
2022-10-02T00:29:52.364Z,3.88
2022-10-02T00:32:29.904Z,4.13
2022-10-02T00:35:23.355Z,3.35
2022-10-02T00:37:59.018Z,3.97
2022-10-02T00:40:59.470Z,3.78
2022-10-02T00:43:38.875Z,3.88
2022-10-02T00:46:28.992Z,4.43
2022-10-02T00:49:08.720Z,3.63
2022-10-02T00:51:56.101Z,3.90
2022-10-02T00:54:46.698Z,3.63
2022-10-02T00:57:27.495Z,4.32
2022-10-02T01:00:05.871Z,4.38
2022-10-02T01:03:08.837Z,3.85
2022-10-02T01:05:36.941Z,4.25
2022-10-02T01:08:05.871Z,4.10
2022-10-02T01:10:34.693Z,4.28
2022-10-02T01:13:02.318Z,4.70
2022-10-02T01:15:33.094Z,3.83
2022-10-02T01:18:02.826Z,3.92
2022-10-02T01:20:36.697Z,3.75
2022-10-02T01:23:16.905Z,4.88
2022-10-02T01:25:46.187Z,4.07
2022-10-02T01:28:13.947Z,4.68
2022-10-02T01:30:45.322Z,4.03
2022-10-02T01:33:14.362Z,3.78
2022-10-02T01:35:42.537Z,5.63
2022-10-02T01:38:13.469Z,4.00
2022-10-02T01:40:41.776Z,4.00
2022-10-02T01:43:13.393Z,3.83
2022-10-02T01:45:53.045Z,3.88
2022-10-02T01:48:30.538Z,4.05
2022-10-02T01:51:09.921Z,4.30
2022-10-02T01:53:48.200Z,4.57
2022-10-02T01:56:23.377Z,4.20
2022-10-02T02:01:41.116Z,4.63
2022-10-02T02:04:21.768Z,4.15
2022-10-02T02:06:57.645Z,3.88
2022-10-02T02:09:33.469Z,4.15
2022-10-02T02:12:08.865Z,4.38
2022-10-02T02:14:46.062Z,3.90
2022-10-02T02:17:17.868Z,4.90
2022-10-02T02:19:49.942Z,4.15
2022-10-02T02:22:22.277Z,4.88
2022-10-02T02:24:54.365Z,4.63
2022-10-02T02:27:25.224Z,4.30
2022-10-02T02:30:02.283Z,5.05
2022-10-02T02:32:33.003Z,5.38
2022-10-02T02:35:05.493Z,4.97
2022-10-02T02:37:36.371Z,4.55
2022-10-02T02:40:09.152Z,4.75
2022-10-02T02:42:41.826Z,4.80
2022-10-02T02:45:17.238Z,4.88
2022-10-02T02:47:50.116Z,4.70
2022-10-02T02:50:22.740Z,5.03
2022-10-02T02:52:56.678Z,4.53
2022-10-02T02:55:28.921Z,4.40
2022-10-02T02:58:03.704Z,6.38
2022-10-02T03:00:32.641Z,5.75
2022-10-02T03:03:00.553Z,5.15
2022-10-02T03:05:29.509Z,5.03
2022-10-02T03:08:00.761Z,5.57
2022-10-02T03:10:40.495Z,5.82
2022-10-02T03:13:29.658Z,5.13
2022-10-02T03:16:12.994Z,4.78
2022-10-02T03:18:52.253Z,5.53
2022-10-02T03:21:27.170Z,6.65
2022-10-02T03:24:02.533Z,5.03
2022-10-02T03:26:38.065Z,5.20
2022-10-02T03:29:11.670Z,4.57
2022-10-02T03:31:41.494Z,4.68
2022-10-02T03:34:09.412Z,5.43
2022-10-02T03:36:38.112Z,5.20
2022-10-02T03:39:24.283Z,4.85
2022-10-02T03:41:53.203Z,5.18
2022-10-02T03:44:20.692Z,5.43
2022-10-02T03:46:49.633Z,6.13
2022-10-02T03:49:17.174Z,5.55
2022-10-02T03:51:44.684Z,5.38
2022-10-02T03:54:17.586Z,5.60
2022-10-02T03:56:52.863Z,4.93
2022-10-02T03:59:40.814Z,5.63
2022-10-02T04:02:18.549Z,4.97
2022-10-02T04:04:50.801Z,5.30
2022-10-02T04:07:23.817Z,4.85
2022-10-02T04:09:55.603Z,5.15
2022-10-02T04:12:30.109Z,4.60
2022-10-02T04:15:03.043Z,5.63
2022-10-02T04:17:43.853Z,5.88
2022-10-02T04:20:15.917Z,5.18
2022-10-02T04:22:50.572Z,5.25
2022-10-02T04:25:20.841Z,5.20
2022-10-02T04:27:54.092Z,4.57
2022-10-02T04:30:22.061Z,4.78
2022-10-02T04:32:51.822Z,4.13
2022-10-02T04:35:32.213Z,4.22
2022-10-02T04:38:24.553Z,4.22
2022-10-02T04:41:06.332Z,3.90
2022-10-02T04:43:47.605Z,3.88
2022-10-02T04:46:32.739Z,3.95
2022-10-02T04:49:17.289Z,3.38
2022-10-02T04:51:57.554Z,2.97
2022-10-02T04:54:42.784Z,3.38
2022-10-02T04:57:27.844Z,4.50
2022-10-02T05:00:08.573Z,3.05
2022-10-02T05:02:49.592Z,3.20
2022-10-02T05:05:31.217Z,3.05
2022-10-02T05:08:18.022Z,3.50
2022-10-02T05:10:55.668Z,3.53
2022-10-02T05:13:37.438Z,3.05
2022-10-02T05:16:21.826Z,3.30
2022-10-02T05:19:24.463Z,2.75
2022-10-02T05:22:14.750Z,2.47
2022-10-02T05:24:50.944Z,2.33
2022-10-02T05:27:41.233Z,2.65
2022-10-02T05:30:11.965Z,2.45
2022-10-02T05:33:16.212Z,3.00
2022-10-02T05:35:59.667Z,2.33
2022-10-02T05:38:46.528Z,2.35
2022-10-02T05:41:22.213Z,2.55
2022-10-02T05:43:56.385Z,2.40
2022-10-02T05:46:26.639Z,2.40
2022-10-02T05:48:59.576Z,2.83
2022-10-02T05:51:36.812Z,2.47
2022-10-02T05:54:15.347Z,2.45
2022-10-02T05:56:48.798Z,2.58
2022-10-02T05:59:33.438Z,2.58
2022-10-02T06:02:07.493Z,3.17
2022-10-02T06:04:40.579Z,2.33
2022-10-02T06:07:10.625Z,3.03
2022-10-02T06:09:47.226Z,2.50
2022-10-02T06:12:23.661Z,2.40
2022-10-02T06:14:56.191Z,2.45
2022-10-02T06:17:30.161Z,2.72
2022-10-02T06:20:04.280Z,2.53
2022-10-02T06:22:36.669Z,2.73
2022-10-02T06:25:11.482Z,2.88
2022-10-02T06:27:44.151Z,2.45
2022-10-02T06:30:14.041Z,2.70
2022-10-02T06:32:46.707Z,2.90
2022-10-02T06:35:16.135Z,3.10
2022-10-02T06:38:04.757Z,4.65
2022-10-02T06:40:51.924Z,3.00
2022-10-02T06:43:44.866Z,3.17
2022-10-02T06:46:29.023Z,3.38
2022-10-02T06:49:03.057Z,2.97
2022-10-02T06:51:38.512Z,3.20
2022-10-02T06:54:34.431Z,3.50
2022-10-02T06:59:58.284Z,4.55
2022-10-02T07:02:42.562Z,4.38
2022-10-02T07:05:37.561Z,4.57
2022-10-02T07:08:15.178Z,4.47
2022-10-02T07:10:51.333Z,5.10
2022-10-02T07:13:32.449Z,4.43
2022-10-02T07:16:33.087Z,5.10
2022-10-02T07:19:15.802Z,5.25
2022-10-02T07:21:52.509Z,5.25
2022-10-02T07:24:36.897Z,5.10
2022-10-02T07:27:10.190Z,4.57
2022-10-02T07:29:51.321Z,4.53
2022-10-02T07:32:38.949Z,4.07
2022-10-02T07:35:21.528Z,4.25
2022-10-02T07:38:02.107Z,4.50
2022-10-02T07:40:38.893Z,3.65
2022-10-02T07:43:19.726Z,4.10
2022-10-02T07:45:56.833Z,4.13
2022-10-02T07:48:34.217Z,4.00
2022-10-02T07:51:36.120Z,4.43
2022-10-02T07:54:17.104Z,3.88
2022-10-02T07:56:48.199Z,3.50
2022-10-02T07:59:18.670Z,4.47
2022-10-02T08:01:50.331Z,3.97
2022-10-02T08:04:19.932Z,3.58
2022-10-02T08:06:48.953Z,4.18
2022-10-02T08:09:23.553Z,4.05
2022-10-02T08:11:57.849Z,3.63
2022-10-02T08:14:32.040Z,4.10
2022-10-02T08:17:06.661Z,3.80
2022-10-02T08:19:40.217Z,3.55
2022-10-02T08:22:23.990Z,4.35
2022-10-02T08:24:57.261Z,4.63
2022-10-02T08:27:29.853Z,4.32
2022-10-02T08:30:02.255Z,4.32
2022-10-02T08:32:34.927Z,4.82
2022-10-02T08:35:03.588Z,5.10
2022-10-02T08:37:39.005Z,5.78
2022-10-02T08:40:37.066Z,4.78
2022-10-02T08:43:29.214Z,4.68
2022-10-02T08:46:29.627Z,5.20
2022-10-02T08:49:33.721Z,5.32
2022-10-02T08:52:25.292Z,5.70
2022-10-02T08:55:27.583Z,5.35
2022-10-02T08:58:27.220Z,5.63
2022-10-02T09:01:07.788Z,5.53
2022-10-02T09:04:00.341Z,6.45
2022-10-02T09:06:59.853Z,5.85
2022-10-02T09:10:12.077Z,6.68
2022-10-02T09:13:11.042Z,6.47
2022-10-02T09:15:46.749Z,6.60
2022-10-02T09:18:26.405Z,6.45
2022-10-02T09:21:35.571Z,6.95
2022-10-02T09:24:40.946Z,6.20
2022-10-02T09:27:41.817Z,6.53
2022-10-02T09:31:03.710Z,6.88
2022-10-02T09:34:04.586Z,8.02
2022-10-02T09:37:07.775Z,7.97
2022-10-02T09:40:05.674Z,7.15
2022-10-02T09:42:59.034Z,7.97
2022-10-02T09:45:59.548Z,7.88
2022-10-02T09:48:53.893Z,7.70
2022-10-02T09:51:51.395Z,8.00
2022-10-02T09:55:11.573Z,7.30
2022-10-02T09:58:11.391Z,8.30
2022-10-02T10:01:23.124Z,7.75
2022-10-02T10:04:21.100Z,8.10
2022-10-02T10:07:22.298Z,8.05
2022-10-02T10:10:18.793Z,8.00
2022-10-02T10:13:20.880Z,8.77
2022-10-02T10:16:19.801Z,8.10
2022-10-02T10:19:23.584Z,8.95
2022-10-02T10:22:26.609Z,7.97
2022-10-02T10:25:28.182Z,6.55
2022-10-02T10:28:34.769Z,7.32
2022-10-02T10:31:37.152Z,7.05
2022-10-02T10:34:46.050Z,6.40
2022-10-02T10:37:50.096Z,5.88
2022-10-02T10:40:38.049Z,5.75
2022-10-02T10:43:36.395Z,5.50
2022-10-02T10:46:33.629Z,4.72
2022-10-02T10:49:31.449Z,4.80
2022-10-02T10:52:13.891Z,5.10
2022-10-02T10:55:12.346Z,5.50
2022-10-02T10:58:04.535Z,4.57
2022-10-02T11:00:41.047Z,5.50
2022-10-02T11:03:44.753Z,4.40
2022-10-02T11:06:34.855Z,4.60
2022-10-02T11:09:21.681Z,4.30
2022-10-02T11:12:09.987Z,5.60
2022-10-02T11:14:49.956Z,4.30
2022-10-02T11:17:32.976Z,4.70
2022-10-02T11:20:33.506Z,4.70
2022-10-02T11:23:28.102Z,4.65
2022-10-02T11:26:23.805Z,5.00
2022-10-02T11:29:10.506Z,5.05
2022-10-02T11:31:56.001Z,4.32
2022-10-02T11:34:42.660Z,4.75
2022-10-02T11:37:29.169Z,5.18
2022-10-02T11:40:15.265Z,4.20
2022-10-02T11:42:58.783Z,4.30
2022-10-02T11:45:43.516Z,4.32
2022-10-02T11:48:31.891Z,4.60
2022-10-02T11:51:23.467Z,4.20
2022-10-02T11:54:15.908Z,3.60
2022-10-02T11:57:00.010Z,4.55
2022-10-02T11:59:43.606Z,4.60
2022-10-02T12:02:16.869Z,3.83
2022-10-02T12:04:59.070Z,4.15
2022-10-02T12:07:39.495Z,4.88
2022-10-02T12:10:27.234Z,4.30
2022-10-02T12:13:09.544Z,3.85
2022-10-02T12:15:47.703Z,4.05
2022-10-02T12:18:26.534Z,3.42
2022-10-02T12:21:26.473Z,3.63
2022-10-02T12:24:16.345Z,3.08
2022-10-02T12:26:59.555Z,2.95
2022-10-02T12:29:40.811Z,3.72
2022-10-02T12:32:20.373Z,3.40
2022-10-02T12:35:00.992Z,3.60
2022-10-02T12:37:34.123Z,4.38
2022-10-02T12:40:14.817Z,3.50
2022-10-02T12:43:00.182Z,3.65
2022-10-02T12:48:26.058Z,4.72
2022-10-02T12:51:13.882Z,4.85
2022-10-02T12:54:19.605Z,4.63
2022-10-02T12:57:36.666Z,3.83
2022-10-02T13:00:14.509Z,4.20
2022-10-02T13:03:19.547Z,4.72
2022-10-02T13:06:03.476Z,3.25
2022-10-02T13:09:05.195Z,4.75
2022-10-02T13:11:43.492Z,3.15
2022-10-02T13:14:32.329Z,4.05
2022-10-02T13:17:19.116Z,3.38
2022-10-02T13:19:59.587Z,5.32
2022-10-02T13:22:38.104Z,4.15
2022-10-02T13:25:38.940Z,3.80
2022-10-02T13:28:33.255Z,3.13
2022-10-02T13:31:10.782Z,3.42
2022-10-02T13:34:07.480Z,4.93
2022-10-02T13:36:48.088Z,4.45
2022-10-02T13:39:42.296Z,4.32
2022-10-02T13:42:23.412Z,4.03
2022-10-02T13:45:00.356Z,4.03
2022-10-02T13:47:44.249Z,3.50
2022-10-02T13:50:23.392Z,3.65
2022-10-02T13:53:11.557Z,3.08
2022-10-02T13:55:44.918Z,5.65
2022-10-02T13:58:39.271Z,2.90
2022-10-02T14:01:19.575Z,2.70
2022-10-02T14:04:00.920Z,3.25
2022-10-02T14:06:34.910Z,2.63
2022-10-02T14:09:12.197Z,4.03
2022-10-02T14:11:56.301Z,2.50
2022-10-02T14:14:35.764Z,3.05
2022-10-02T14:17:16.719Z,3.00
2022-10-02T14:19:56.326Z,3.60
2022-10-02T14:22:36.757Z,4.82
2022-10-02T14:25:26.390Z,2.80
2022-10-02T14:28:09.517Z,3.13
2022-10-02T14:30:52.266Z,4.00
2022-10-02T14:33:31.235Z,2.85
2022-10-02T14:36:07.095Z,2.70
2022-10-02T14:38:49.589Z,3.28
2022-10-02T14:41:38.036Z,3.22
2022-10-02T14:44:28.474Z,4.18
2022-10-02T14:47:15.278Z,3.67
2022-10-02T14:49:59.607Z,4.07
2022-10-02T14:52:41.221Z,3.55
2022-10-02T14:55:27.955Z,3.08
2022-10-02T14:58:12.871Z,2.92
2022-10-02T15:00:50.049Z,2.97
2022-10-02T15:03:38.509Z,3.50
2022-10-02T15:06:31.418Z,2.78
2022-10-02T15:09:03.822Z,2.92
2022-10-02T15:11:59.742Z,2.83
2022-10-02T15:14:37.049Z,3.72
2022-10-02T15:17:28.546Z,2.67
2022-10-02T15:20:04.435Z,3.00
2022-10-02T15:22:38.465Z,3.40
2022-10-02T15:25:18.243Z,2.78
2022-10-02T15:27:54.608Z,2.83
2022-10-02T15:30:23.483Z,3.03
2022-10-02T15:33:07.601Z,3.13
2022-10-02T15:35:55.082Z,4.03
2022-10-02T15:38:44.635Z,3.10
2022-10-02T15:41:32.773Z,5.28
2022-10-02T15:44:10.216Z,4.93
2022-10-02T15:46:51.237Z,3.75
2022-10-02T15:49:31.922Z,2.60
2022-10-02T15:52:06.508Z,2.47
2022-10-02T15:54:46.430Z,2.60
2022-10-02T15:57:30.285Z,2.58
2022-10-02T16:00:13.137Z,3.05
2022-10-02T16:02:57.811Z,2.40
2022-10-02T16:05:48.524Z,2.38
2022-10-02T16:08:30.262Z,2.50
2022-10-02T16:11:23.644Z,2.83
2022-10-02T16:14:02.094Z,2.42
2022-10-02T16:17:02.890Z,2.58
2022-10-02T16:19:45.505Z,2.17
2022-10-02T16:22:23.986Z,2.88
2022-10-02T16:25:09.749Z,2.72
2022-10-02T16:27:52.980Z,2.60
2022-10-02T16:30:21.897Z,2.28
2022-10-02T16:33:07.328Z,2.75
2022-10-02T16:38:29.298Z,2.20
2022-10-02T16:40:59.551Z,2.17
2022-10-02T16:43:52.679Z,2.30
2022-10-02T16:46:24.458Z,2.80
2022-10-02T16:48:57.318Z,3.13
2022-10-02T16:51:45.563Z,3.70
2022-10-02T16:54:24.178Z,3.47
2022-10-02T16:56:56.959Z,3.10
2022-10-02T16:59:28.925Z,3.38
2022-10-02T17:02:19.243Z,2.63
2022-10-02T17:04:58.338Z,2.90
2022-10-02T17:07:33.631Z,2.65
2022-10-02T17:10:08.726Z,3.17
2022-10-02T17:15:21.881Z,3.10
2022-10-02T17:18:02.216Z,3.20
2022-10-02T17:20:33.885Z,4.40
2022-10-02T17:23:13.057Z,4.43
2022-10-02T17:25:47.546Z,4.20
2022-10-02T17:28:24.884Z,4.57
2022-10-02T17:31:09.453Z,4.40
2022-10-02T17:33:46.730Z,4.87
2022-10-02T17:36:20.312Z,4.35
2022-10-02T17:39:05.936Z,4.10
2022-10-02T17:41:56.477Z,4.25
2022-10-02T17:44:35.137Z,3.38
2022-10-02T17:47:30.386Z,3.60
2022-10-02T17:50:16.975Z,3.10
2022-10-02T17:53:04.942Z,3.10
2022-10-02T17:56:27.039Z,2.72
2022-10-02T17:59:08.421Z,3.85
2022-10-02T18:01:44.747Z,3.33
2022-10-02T18:04:22.931Z,4.63
2022-10-02T18:07:01.146Z,4.70
2022-10-02T18:09:53.660Z,3.92
2022-10-02T18:12:36.394Z,4.90
2022-10-02T18:15:24.108Z,4.72
2022-10-02T18:18:19.199Z,4.35
2022-10-02T18:21:00.632Z,4.70
2022-10-02T18:24:08.032Z,4.93
2022-10-02T18:26:49.415Z,4.88
2022-10-02T18:29:32.782Z,4.60
2022-10-02T18:32:15.979Z,3.88
2022-10-02T18:35:03.716Z,3.67
2022-10-02T18:37:54.484Z,4.10
2022-10-02T18:40:28.567Z,3.75
2022-10-02T18:43:26.222Z,3.55
2022-10-02T18:46:04.354Z,3.72
2022-10-02T18:48:56.492Z,5.43
2022-10-02T18:51:54.161Z,6.18
2022-10-02T18:54:31.256Z,6.28
2022-10-02T18:57:14.161Z,4.38
2022-10-02T18:59:54.977Z,4.45
2022-10-02T19:02:41.475Z,4.38
2022-10-02T19:05:34.938Z,4.07
2022-10-02T19:08:16.291Z,4.22
2022-10-02T19:10:46.751Z,4.05
2022-10-02T19:13:22.136Z,4.13
2022-10-02T19:15:52.263Z,4.28
2022-10-02T19:18:23.386Z,4.55
2022-10-02T19:20:58.016Z,4.53
2022-10-02T19:23:29.961Z,5.03
2022-10-02T19:26:02.801Z,5.18
2022-10-02T19:28:33.227Z,5.35
2022-10-02T19:31:04.668Z,4.38
2022-10-02T19:33:43.294Z,5.22
2022-10-02T19:36:20.180Z,3.85
2022-10-02T19:38:54.168Z,4.47
2022-10-02T19:41:23.297Z,4.75
2022-10-02T19:43:57.114Z,3.90
2022-10-02T19:46:37.100Z,4.07
2022-10-02T19:49:07.271Z,5.07
2022-10-02T19:51:44.096Z,4.88
2022-10-02T19:54:15.440Z,6.55
2022-10-02T19:56:45.112Z,5.40
2022-10-02T19:59:18.397Z,5.63
2022-10-02T20:01:51.579Z,5.18
2022-10-02T20:04:22.428Z,4.32
2022-10-02T20:06:54.431Z,4.22
2022-10-02T20:09:28.413Z,4.78
2022-10-02T20:12:01.028Z,3.95
2022-10-02T20:14:33.713Z,4.13
2022-10-02T20:17:09.375Z,4.15
2022-10-02T20:19:43.239Z,4.53
2022-10-02T20:22:25.742Z,4.00
2022-10-02T20:24:59.528Z,3.83
2022-10-02T20:27:37.860Z,4.65
2022-10-02T20:30:12.470Z,4.15
2022-10-02T20:32:46.132Z,4.28
2022-10-02T20:35:17.609Z,3.75
2022-10-02T20:37:48.373Z,3.80
2022-10-02T20:40:20.734Z,3.83
2022-10-02T20:42:55.056Z,3.72
2022-10-02T20:45:28.007Z,3.70
2022-10-02T20:48:39.437Z,3.88
2022-10-02T20:51:25.585Z,3.85
2022-10-02T20:54:27.557Z,3.97
2022-10-02T20:57:17.961Z,5.32
2022-10-02T21:00:10.256Z,5.00
2022-10-02T21:03:10.193Z,4.38
2022-10-02T21:05:58.094Z,4.60
2022-10-02T21:08:47.801Z,3.88
2022-10-02T21:11:26.013Z,4.05
2022-10-02T21:14:32.936Z,4.10
2022-10-02T21:17:41.777Z,4.05
2022-10-02T21:20:51.221Z,4.43
2022-10-02T21:23:37.954Z,4.40
2022-10-02T21:26:35.620Z,4.72
2022-10-02T21:29:33.133Z,4.35
2022-10-02T21:32:29.079Z,4.38
2022-10-02T21:37:47.688Z,4.68
2022-10-02T21:40:45.204Z,4.95
2022-10-02T21:43:37.642Z,4.90
2022-10-02T21:46:41.197Z,5.25
2022-10-02T21:49:57.216Z,4.65
2022-10-02T21:53:07.451Z,5.18
2022-10-02T21:55:59.822Z,4.25
2022-10-02T21:58:55.154Z,4.20
2022-10-02T22:02:08.190Z,5.28
2022-10-02T22:04:51.121Z,4.63
2022-10-02T22:07:29.775Z,5.07
2022-10-02T22:10:03.846Z,4.63
2022-10-02T22:12:48.105Z,4.93
2022-10-02T22:15:20.984Z,4.90
2022-10-02T22:17:58.845Z,4.70
2022-10-02T22:20:42.890Z,5.28
2022-10-02T22:23:27.679Z,5.10
2022-10-02T22:26:13.306Z,4.78
2022-10-02T22:28:46.174Z,4.47
2022-10-02T22:31:40.956Z,4.93
2022-10-02T22:34:31.634Z,4.30
2022-10-02T22:37:21.972Z,4.80
2022-10-02T22:40:00.999Z,4.00
2022-10-02T22:42:38.271Z,5.15
2022-10-02T22:45:20.583Z,4.40
2022-10-02T22:47:57.454Z,4.63
2022-10-02T22:50:31.492Z,5.45
2022-10-02T22:53:07.573Z,4.35
2022-10-02T22:55:39.550Z,4.53
2022-10-02T22:58:13.120Z,4.03
2022-10-02T23:01:00.108Z,3.35
2022-10-02T23:03:34.863Z,3.55
2022-10-02T23:06:05.965Z,3.70
2022-10-02T23:08:39.482Z,4.00
2022-10-02T23:11:14.432Z,4.30
2022-10-02T23:13:47.574Z,3.95
2022-10-02T23:16:24.659Z,4.03
2022-10-02T23:18:58.891Z,3.28
2022-10-02T23:21:39.164Z,3.92
2022-10-02T23:24:26.507Z,4.03
2022-10-02T23:26:57.821Z,3.67
2022-10-02T23:29:38.097Z,4.20
2022-10-02T23:32:21.576Z,3.75
2022-10-02T23:34:54.816Z,3.63
2022-10-02T23:37:26.681Z,4.38
2022-10-02T23:40:03.693Z,4.32
2022-10-02T23:42:37.493Z,4.10
2022-10-02T23:45:11.275Z,3.88
2022-10-02T23:47:54.657Z,3.60
2022-10-02T23:50:25.653Z,4.57
2022-10-02T23:53:05.623Z,3.90
2022-10-02T23:55:48.099Z,3.67
2022-10-02T23:58:48.956Z,4.03
